Time;durP1;ratioP1;P1;durP2;ratioP2;P2;SDS_P1;SDS_P2;PMS_P1;PMS_P2;Temp;Humidity;BMP_temperature;BMP_pressure;BME280_temperature;BME280_humidity;BME280_pressure;Samples;Min_cycle;Max_cycle;Signal;HPM_P1;HPM_P2
2023/05/26 00:01:26;;;;;;;36.38;6.10;;;10.20;99.90;;;;;;4943946;29;20187;-80
2023/05/26 00:03:53;;;;;;;29.33;4.75;;;10.20;99.90;;;;;;4944001;29;20187;-79
2023/05/26 00:06:22;;;;;;;32.80;5.88;;;10.10;99.90;;;;;;4924671;29;20227;-80
2023/05/26 00:08:48;;;;;;;36.88;5.80;;;10.10;99.90;;;;;;4925212;29;20267;-79
2023/05/26 00:11:13;;;;;;;38.00;5.88;;;10.10;99.90;;;;;;4925511;29;20195;-80
2023/05/26 00:13:39;;;;;;;34.55;5.93;;;10.10;99.90;;;;;;4923406;29;20259;-80
2023/05/26 00:16:05;;;;;;;32.70;6.10;;;10.10;99.90;;;;;;4920908;29;20226;-80
2023/05/26 00:18:31;;;;;;;40.20;5.82;;;10.10;99.90;;;;;;4927957;29;20190;-79
2023/05/26 00:20:57;;;;;;;31.85;6.07;;;10.00;99.90;;;;;;4938672;29;20211;-80
2023/05/26 00:23:23;;;;;;;35.72;6.15;;;10.00;99.90;;;;;;4937797;29;20186;-79
2023/05/26 00:25:50;;;;;;;37.55;5.45;;;10.00;99.90;;;;;;4938105;29;20581;-81
2023/05/26 00:28:16;;;;;;;29.42;6.00;;;10.00;99.90;;;;;;4921424;29;20238;-80
2023/05/26 00:30:41;;;;;;;28.02;6.07;;;10.00;99.90;;;;;;4920875;29;20246;-80
2023/05/26 00:33:07;;;;;;;36.00;6.15;;;10.00;99.90;;;;;;4952687;29;20187;-79
2023/05/26 00:35:33;;;;;;;34.72;5.90;;;10.00;99.90;;;;;;4936260;29;20234;-79
2023/05/26 00:37:59;;;;;;;33.33;5.40;;;9.90;99.90;;;;;;4938207;29;20562;-80
2023/05/26 00:40:25;;;;;;;31.40;5.63;;;9.90;99.90;;;;;;4938811;29;20520;-80
2023/05/26 00:42:51;;;;;;;32.30;6.07;;;9.90;99.90;;;;;;4937103;29;20266;-78
2023/05/26 00:45:16;;;;;;;37.95;5.70;;;9.90;99.90;;;;;;4938635;29;20482;-80
2023/05/26 00:47:42;;;;;;;39.92;6.47;;;9.90;99.90;;;;;;4937590;29;20198;-79
2023/05/26 00:50:12;;;;;;;29.02;5.38;;;9.80;99.90;;;;;;4906238;29;20194;-79
2023/05/26 00:52:39;;;;;;;29.60;5.47;;;9.80;99.90;;;;;;4919839;29;20184;-79
2023/05/26 00:55:06;;;;;;;41.13;6.40;;;9.80;99.90;;;;;;4933775;29;20323;-79
2023/05/26 00:57:33;;;;;;;35.92;5.90;;;9.80;99.90;;;;;;4952310;29;20183;-78
2023/05/26 00:59:59;;;;;;;34.88;6.30;;;9.70;99.90;;;;;;4940322;29;20191;-78
2023/05/26 01:02:27;;;;;;;31.60;6.05;;;9.70;99.90;;;;;;4938024;29;20242;-80
2023/05/26 01:04:53;;;;;;;31.05;5.82;;;9.70;99.90;;;;;;4940361;29;20290;-79
2023/05/26 01:07:20;;;;;;;43.97;6.78;;;9.70;99.90;;;;;;4940219;29;20207;-78
2023/05/26 01:09:48;;;;;;;35.25;5.45;;;9.70;99.90;;;;;;4940886;29;20222;-80
2023/05/26 01:12:26;;;;;;;45.63;5.93;;;9.70;99.90;;;;;;4938304;29;20282;-80
2023/05/26 01:15:11;;;;;;;30.75;5.53;;;9.60;99.90;;;;;;4939071;29;20199;-79
2023/05/26 01:18:14;;;;;;;43.03;5.97;;;9.60;99.90;;;;;;4938953;29;20202;-80
2023/05/26 01:20:49;;;;;;;38.00;6.00;;;9.60;99.90;;;;;;4907798;29;20218;-79
2023/05/26 01:23:56;;;;;;;33.55;5.40;;;9.50;99.90;;;;;;4927411;29;20225;-78
2023/05/26 01:27:04;;;;;;;24.40;4.43;;;9.50;99.90;;;;;;4938417;29;20199;-79
2023/05/26 01:29:32;;;;;;;33.00;5.38;;;9.50;99.90;;;;;;4936545;29;20290;-79
2023/05/26 01:32:14;;;;;;;30.65;6.03;;;9.50;99.90;;;;;;4937494;29;20186;-79
2023/05/26 01:34:40;;;;;;;34.17;5.93;;;9.50;99.90;;;;;;4937634;29;20210;-79
2023/05/26 01:37:06;;;;;;;35.83;5.53;;;9.50;99.90;;;;;;4937916;29;20667;-78
2023/05/26 01:39:33;;;;;;;32.55;5.30;;;9.50;99.90;;;;;;4906457;29;20187;-79
2023/05/26 01:42:08;;;;;;;32.75;5.57;;;9.50;99.90;;;;;;4937113;29;20530;-79
2023/05/26 01:44:54;;;;;;;31.25;5.88;;;9.50;99.90;;;;;;4922232;29;20263;-79
2023/05/26 01:47:23;;;;;;;40.58;6.32;;;9.50;99.90;;;;;;4936410;29;20740;-79
2023/05/26 01:49:51;;;;;;;39.60;6.05;;;9.50;99.90;;;;;;4937518;29;20184;-80
2023/05/26 01:52:19;;;;;;;24.38;4.80;;;9.40;99.90;;;;;;4935175;29;20202;-79
2023/05/26 01:54:50;;;;;;;28.67;5.30;;;9.40;99.90;;;;;;4934805;29;20176;-79
2023/05/26 01:57:16;;;;;;;32.20;6.00;;;9.40;99.90;;;;;;4934082;29;20199;-79
2023/05/26 01:59:43;;;;;;;41.83;5.95;;;9.40;99.90;;;;;;4934395;29;20249;-80
2023/05/26 02:02:09;;;;;;;34.38;6.28;;;9.40;99.90;;;;;;4934767;29;20191;-81
2023/05/26 02:04:37;;;;;;;31.20;5.53;;;9.40;99.90;;;;;;4934214;29;20671;-80
2023/05/26 02:07:05;;;;;;;37.40;5.90;;;9.40;99.90;;;;;;4934552;29;20238;-79
2023/05/26 02:09:35;;;;;;;38.85;6.13;;;9.40;99.90;;;;;;4934083;29;20187;-80
2023/05/26 02:12:02;;;;;;;31.27;5.55;;;9.40;99.90;;;;;;4949941;29;20195;-79
2023/05/26 02:14:28;;;;;;;35.20;5.88;;;9.40;99.90;;;;;;4935117;29;20270;-80
2023/05/26 02:16:54;;;;;;;43.10;6.22;;;9.40;99.90;;;;;;4918839;29;20198;-80
2023/05/26 02:19:20;;;;;;;34.10;5.57;;;9.40;99.90;;;;;;4919658;29;20187;-80
2023/05/26 02:21:46;;;;;;;38.00;5.68;;;9.40;99.90;;;;;;4936290;29;20198;-80
2023/05/26 02:24:12;;;;;;;38.55;6.32;;;9.40;99.90;;;;;;4919953;29;20194;-79
2023/05/26 02:26:38;;;;;;;29.25;5.55;;;9.40;99.90;;;;;;4932919;29;20217;-80
2023/05/26 02:29:05;;;;;;;32.38;5.63;;;9.40;99.90;;;;;;4916925;29;20196;-79
2023/05/26 02:31:33;;;;;;;36.80;5.60;;;9.40;99.90;;;;;;4924784;29;20183;-81
2023/05/26 02:34:01;;;;;;;37.13;5.40;;;9.40;99.90;;;;;;4951541;29;20266;-81
2023/05/26 02:36:27;;;;;;;27.33;5.10;;;9.40;99.90;;;;;;4938653;29;20206;-79
2023/05/26 02:38:53;;;;;;;38.15;5.85;;;9.40;99.90;;;;;;4938069;29;20187;-79
2023/05/26 02:41:19;;;;;;;28.80;5.30;;;9.40;99.90;;;;;;4933079;29;20221;-79
2023/05/26 02:43:45;;;;;;;40.10;6.22;;;9.40;99.90;;;;;;4936588;29;20191;-80
2023/05/26 02:46:11;;;;;;;35.20;5.93;;;9.30;99.90;;;;;;4945077;29;20219;-80
2023/05/26 02:48:37;;;;;;;38.10;5.43;;;9.30;99.90;;;;;;4917052;29;20184;-80
2023/05/26 02:51:03;;;;;;;22.70;5.55;;;9.30;99.90;;;;;;4918824;29;20187;-80
2023/05/26 02:53:28;;;;;;;36.38;5.72;;;9.30;99.90;;;;;;4919438;29;20191;-80
2023/05/26 02:55:54;;;;;;;26.10;5.13;;;9.30;99.90;;;;;;4951003;29;20223;-80
2023/05/26 02:58:21;;;;;;;39.00;5.60;;;9.30;99.90;;;;;;4937549;29;20191;-80
2023/05/26 03:00:48;;;;;;;36.30;5.60;;;9.30;99.90;;;;;;4936197;29;20198;-79
2023/05/26 03:03:13;;;;;;;34.42;5.35;;;9.30;99.90;;;;;;4936750;29;20194;-79
2023/05/26 03:05:39;;;;;;;31.13;5.43;;;9.30;99.90;;;;;;4935093;29;20627;-82
2023/05/26 03:08:05;;;;;;;37.95;5.35;;;9.40;99.90;;;;;;4935661;29;20195;-80
2023/05/26 03:10:33;;;;;;;34.95;5.88;;;9.40;99.90;;;;;;4952199;29;20198;-80
2023/05/26 03:12:59;;;;;;;41.90;5.57;;;9.40;99.90;;;;;;4935998;29;20179;-80
2023/05/26 03:15:37;;;;;;;26.88;5.22;;;9.40;99.90;;;;;;4937193;29;20557;-80
2023/05/26 03:18:07;;;;;;;35.20;5.20;;;9.40;99.90;;;;;;4922993;29;20191;-80
2023/05/26 03:20:33;;;;;;;28.70;5.50;;;9.40;99.90;;;;;;4918356;29;20195;-86
2023/05/26 03:22:59;;;;;;;37.95;5.25;;;9.40;99.90;;;;;;4949855;29;20199;-80
2023/05/26 03:25:25;;;;;;;29.95;6.03;;;9.40;99.90;;;;;;4933423;29;20282;-81
2023/05/26 03:27:51;;;;;;;29.00;5.13;;;9.40;99.90;;;;;;4913216;29;20259;-81
2023/05/26 03:30:18;;;;;;;31.15;5.35;;;9.40;99.90;;;;;;4930160;29;20176;-81
2023/05/26 03:32:46;;;;;;;31.92;5.10;;;9.40;99.90;;;;;;4915800;29;20278;-80
2023/05/26 03:35:12;;;;;;;26.30;5.00;;;9.30;99.90;;;;;;4932950;29;20319;-80
2023/05/26 03:37:38;;;;;;;25.92;5.28;;;9.30;99.90;;;;;;4915614;29;20195;-81
2023/05/26 03:40:06;;;;;;;28.08;5.53;;;9.30;99.90;;;;;;4903543;29;20274;-80
2023/05/26 03:42:34;;;;;;;37.97;5.88;;;9.30;99.90;;;;;;4934501;29;20604;-81
2023/05/26 03:45:00;;;;;;;29.15;5.60;;;9.30;99.90;;;;;;4953233;28;20266;-80
2023/05/26 03:47:26;;;;;;;38.83;5.82;;;9.30;99.90;;;;;;4938767;29;20705;-80
2023/05/26 03:49:51;;;;;;;33.72;5.40;;;9.30;99.90;;;;;;4924583;29;20195;-80
2023/05/26 03:52:17;;;;;;;33.88;6.28;;;9.30;99.90;;;;;;4921061;29;20291;-80
2023/05/26 03:54:43;;;;;;;31.45;5.88;;;9.20;99.90;;;;;;4919222;29;20188;-80
2023/05/26 03:57:09;;;;;;;37.55;5.88;;;9.30;99.90;;;;;;4938713;29;20297;-80
2023/05/26 03:59:35;;;;;;;33.47;5.20;;;9.20;99.90;;;;;;4925450;29;20191;-80
2023/05/26 04:02:03;;;;;;;33.30;5.50;;;9.20;99.90;;;;;;4956174;29;20194;-80
2023/05/26 04:04:29;;;;;;;31.13;5.35;;;9.20;99.90;;;;;;4941391;29;20382;-80
2023/05/26 04:06:56;;;;;;;32.22;5.63;;;9.20;99.90;;;;;;4924418;29;20215;-85
2023/05/26 04:09:22;;;;;;;26.08;5.70;;;9.20;99.90;;;;;;4942059;29;20695;-81
2023/05/26 04:11:48;;;;;;;37.70;6.10;;;9.20;99.90;;;;;;4931278;29;20187;-80
2023/05/26 04:14:13;;;;;;;27.70;5.82;;;9.20;99.90;;;;;;4956364;29;20183;-80
2023/05/26 04:16:39;;;;;;;29.73;5.43;;;9.20;99.90;;;;;;4954850;29;20234;-80
2023/05/26 04:19:05;;;;;;;39.25;5.50;;;9.20;99.90;;;;;;4955263;29;20551;-80
2023/05/26 04:21:31;;;;;;;27.33;5.70;;;9.20;99.90;;;;;;4939442;29;20183;-79
2023/05/26 04:23:57;;;;;;;37.50;5.72;;;9.30;99.90;;;;;;4924530;29;20192;-79
2023/05/26 04:26:32;;;;;;;29.70;6.10;;;9.30;99.90;;;;;;4956224;29;20268;-80
2023/05/26 04:29:07;;;;;;;39.28;5.97;;;9.30;99.90;;;;;;4943228;29;20523;-80
2023/05/26 04:31:42;;;;;;;34.70;5.32;;;9.30;99.90;;;;;;4957272;29;20632;-80
2023/05/26 04:34:37;;;;;;;34.17;4.97;;;9.40;99.90;;;;;;4928898;29;20191;-80
2023/05/26 04:37:09;;;;;;;39.50;6.07;;;9.40;99.90;;;;;;4941355;29;20175;-81
2023/05/26 04:39:35;;;;;;;32.42;5.45;;;9.40;99.90;;;;;;4941196;29;20304;-85
2023/05/26 04:42:03;;;;;;;33.00;6.03;;;9.40;99.90;;;;;;4942111;29;20248;-79
2023/05/26 04:44:31;;;;;;;27.77;5.45;;;9.40;99.90;;;;;;4932354;29;20239;-83
2023/05/26 04:46:57;;;;;;;34.22;5.60;;;9.50;99.90;;;;;;4929620;29;20271;-81
2023/05/26 04:49:23;;;;;;;30.85;6.32;;;9.50;99.90;;;;;;4925875;29;20207;-80
2023/05/26 04:51:56;;;;;;;36.53;5.25;;;9.50;99.90;;;;;;4923109;29;20573;-81
2023/05/26 04:54:22;;;;;;;33.45;6.20;;;9.60;99.90;;;;;;4937642;29;20284;-80
2023/05/26 04:56:48;;;;;;;32.70;5.95;;;9.60;99.90;;;;;;4938995;29;20191;-80
2023/05/26 04:59:17;;;;;;;29.38;5.57;;;9.70;99.90;;;;;;4905571;29;20196;-80
2023/05/26 05:01:47;;;;;;;33.42;6.07;;;9.70;99.90;;;;;;4921681;29;20183;-80
2023/05/26 05:04:28;;;;;;;31.08;5.78;;;9.80;99.90;;;;;;4929067;29;20223;-80
2023/05/26 05:06:56;;;;;;;32.17;5.68;;;9.80;99.90;;;;;;4917838;29;20230;-80
2023/05/26 05:09:22;;;;;;;27.83;5.40;;;9.90;99.90;;;;;;4938583;29;20199;-80
2023/05/26 05:11:48;;;;;;;31.85;5.95;;;9.90;99.90;;;;;;4926370;29;20191;-80
2023/05/26 05:14:14;;;;;;;36.22;6.07;;;10.00;99.90;;;;;;4922572;29;20188;-80
2023/05/26 05:16:41;;;;;;;34.90;5.80;;;10.00;99.90;;;;;;4942087;29;20205;-83
2023/05/26 05:19:08;;;;;;;42.60;6.70;;;10.10;99.90;;;;;;4926272;29;20191;-84
2023/05/26 05:21:40;;;;;;;34.08;5.82;;;10.20;99.90;;;;;;4910737;29;20548;-83
2023/05/26 05:24:06;;;;;;;34.58;5.03;;;10.20;99.90;;;;;;4944226;29;20230;-84
2023/05/26 05:26:32;;;;;;;31.80;5.30;;;10.20;99.90;;;;;;4927587;29;20219;-82
2023/05/26 05:28:59;;;;;;;27.48;6.00;;;10.30;99.90;;;;;;4946953;29;20191;-83
2023/05/26 05:31:34;;;;;;;30.67;5.40;;;10.30;99.90;;;;;;4931035;29;20697;-81
2023/05/26 05:34:00;;;;;;;30.55;5.38;;;10.40;99.90;;;;;;4944524;29;20197;-83
2023/05/26 05:36:27;;;;;;;33.45;6.10;;;10.50;99.90;;;;;;4929123;29;20219;-83
2023/05/26 05:38:53;;;;;;;30.77;5.47;;;10.50;99.90;;;;;;4944542;29;20271;-85
2023/05/26 05:41:19;;;;;;;35.00;5.35;;;10.60;99.90;;;;;;4911725;29;20610;-84
2023/05/26 05:43:45;;;;;;;25.08;5.13;;;10.70;99.90;;;;;;4943849;29;20700;-82
2023/05/26 05:46:11;;;;;;;34.00;5.03;;;10.70;99.90;;;;;;4944801;29;20199;-84
2023/05/26 05:49:03;;;;;;;29.55;5.57;;;10.80;99.90;;;;;;4941323;29;20211;-85
2023/05/26 05:51:33;;;;;;;37.55;5.55;;;10.90;99.90;;;;;;4907743;29;20188;-83
2023/05/26 05:53:59;;;;;;;32.83;5.65;;;10.90;99.90;;;;;;4922513;29;20176;-83
2023/05/26 05:56:26;;;;;;;30.80;5.05;;;11.00;99.90;;;;;;4923550;29;20680;-84
2023/05/26 05:58:53;;;;;;;36.20;5.35;;;11.10;99.90;;;;;;4929003;29;20201;-83
2023/05/26 06:01:19;;;;;;;29.95;5.57;;;11.20;99.90;;;;;;4926760;29;20259;-83
2023/05/26 06:03:45;;;;;;;29.13;5.35;;;11.30;99.90;;;;;;4943215;29;20325;-83
2023/05/26 06:06:12;;;;;;;37.72;5.13;;;11.30;99.90;;;;;;4942049;29;20218;-84
2023/05/26 06:08:38;;;;;;;37.85;5.93;;;11.40;99.90;;;;;;4940179;29;20612;-83
2023/05/26 06:11:07;;;;;;;26.45;4.55;;;11.60;99.90;;;;;;4940825;29;20571;-83
2023/05/26 06:13:37;;;;;;;30.50;5.05;;;11.70;99.90;;;;;;4941081;29;20178;-84
2023/05/26 06:16:04;;;;;;;26.85;5.47;;;11.80;99.90;;;;;;4923829;29;20191;-83
2023/05/26 06:18:30;;;;;;;30.13;5.07;;;11.90;99.90;;;;;;4935914;29;20208;-83
2023/05/26 06:20:56;;;;;;;34.63;5.60;;;11.90;99.90;;;;;;4919620;29;20195;-84
2023/05/26 06:23:22;;;;;;;27.55;4.47;;;12.00;99.90;;;;;;4906776;29;20184;-83
2023/05/26 06:25:48;;;;;;;21.10;3.97;;;12.10;99.90;;;;;;4922142;29;20243;-83
2023/05/26 06:28:16;;;;;;;23.75;4.63;;;12.10;99.90;;;;;;4941101;29;20221;-83
2023/05/26 06:30:43;;;;;;;28.90;5.00;;;12.20;99.90;;;;;;4958154;29;20214;-83
2023/05/26 06:33:29;;;;;;;24.85;4.50;;;12.20;99.90;;;;;;4932839;29;20193;-84
2023/05/26 06:35:57;;;;;;;28.15;5.22;;;12.30;99.90;;;;;;4925154;29;20226;-84
2023/05/26 06:38:23;;;;;;;24.52;4.82;;;12.30;99.90;;;;;;4942488;29;20204;-83
2023/05/26 06:40:49;;;;;;;32.05;6.72;;;12.40;99.90;;;;;;4941061;29;20239;-84
2023/05/26 06:43:16;;;;;;;26.80;5.75;;;12.50;99.90;;;;;;4895860;29;20351;-84
2023/05/26 06:45:42;;;;;;;32.20;5.32;;;12.50;99.90;;;;;;4940852;29;20223;-85
2023/05/26 06:48:08;;;;;;;24.95;5.10;;;12.60;99.90;;;;;;4920350;29;20192;-84
2023/05/26 06:50:38;;;;;;;26.02;4.90;;;12.60;99.90;;;;;;4928301;29;20183;-84
2023/05/26 06:53:05;;;;;;;14.88;4.00;;;12.70;99.90;;;;;;4923194;29;20294;-85
2023/05/26 06:55:31;;;;;;;21.25;3.85;;;12.80;99.90;;;;;;4928969;29;20259;-84
2023/05/26 06:57:57;;;;;;;27.35;4.45;;;12.80;99.90;;;;;;4938703;29;20254;-83
2023/05/26 07:00:23;;;;;;;18.85;3.88;;;12.90;99.90;;;;;;4932585;29;20215;-84
2023/05/26 07:02:57;;;;;;;23.52;4.35;;;13.00;99.90;;;;;;4924251;29;20187;-84
2023/05/26 07:05:26;;;;;;;21.10;4.00;;;13.10;99.90;;;;;;4937990;29;20380;-83
2023/05/26 07:07:52;;;;;;;20.30;3.67;;;13.10;99.90;;;;;;4917690;29;20665;-82
2023/05/26 07:10:18;;;;;;;20.45;4.18;;;13.20;99.90;;;;;;4919765;29;20179;-83
2023/05/26 07:12:43;;;;;;;17.48;3.85;;;13.20;99.90;;;;;;4919888;29;20266;-84
2023/05/26 07:15:23;;;;;;;18.33;3.95;;;13.30;99.90;;;;;;4923158;29;20209;-83
2023/05/26 07:17:49;;;;;;;18.23;4.47;;;13.40;99.90;;;;;;4927775;29;20191;-84
2023/05/26 07:20:16;;;;;;;22.13;4.68;;;13.50;99.90;;;;;;4921452;29;20241;-82
2023/05/26 07:22:42;;;;;;;21.38;4.55;;;13.60;99.90;;;;;;4935334;29;20183;-84
2023/05/26 07:25:19;;;;;;;17.98;4.28;;;13.70;99.90;;;;;;4938974;29;20183;-83
2023/05/26 07:27:47;;;;;;;18.90;4.45;;;13.80;99.90;;;;;;4910979;29;20282;-85
2023/05/26 07:30:13;;;;;;;22.75;3.95;;;13.90;99.90;;;;;;4940859;29;20215;-84
2023/05/26 07:33:08;;;;;;;20.15;3.97;;;14.00;99.90;;;;;;4939272;29;20196;-84
2023/05/26 07:35:35;;;;;;;23.17;4.63;;;14.10;99.90;;;;;;4937731;29;20251;-84
2023/05/26 07:38:03;;;;;;;26.92;4.20;;;14.10;99.90;;;;;;4939701;29;20191;-83
2023/05/26 07:40:34;;;;;;;12.38;3.53;;;14.20;99.90;;;;;;4929899;29;20184;-85
2023/05/26 07:43:00;;;;;;;18.65;3.65;;;14.30;99.90;;;;;;4945033;29;20287;-83
2023/05/26 07:45:26;;;;;;;17.05;4.05;;;14.40;99.90;;;;;;4947478;29;20210;-84
2023/05/26 07:47:53;;;;;;;16.52;3.72;;;14.50;99.90;;;;;;4933540;29;20622;-85
2023/05/26 07:50:19;;;;;;;23.17;4.18;;;14.60;99.90;;;;;;4943512;29;20201;-83
2023/05/26 07:52:45;;;;;;;16.05;3.70;;;14.80;99.90;;;;;;4943627;29;20213;-84
2023/05/26 07:55:11;;;;;;;18.02;3.78;;;14.90;99.90;;;;;;4945759;29;20188;-82
2023/05/26 07:57:36;;;;;;;17.50;3.78;;;14.90;99.90;;;;;;4939772;29;20239;-84
2023/05/26 08:00:03;;;;;;;14.43;3.53;;;15.00;99.90;;;;;;4916065;29;20610;-85
2023/05/26 08:02:39;;;;;;;15.95;3.85;;;15.10;99.90;;;;;;4949160;29;20214;-87
2023/05/26 08:05:05;;;;;;;17.35;3.45;;;15.20;99.90;;;;;;4929964;29;20338;-84
2023/05/26 08:07:31;;;;;;;18.90;3.40;;;15.30;99.50;;;;;;4929369;29;20226;-84
2023/05/26 08:09:57;;;;;;;16.10;3.75;;;15.40;99.30;;;;;;4953658;29;20195;-86
2023/05/26 08:12:22;;;;;;;19.00;3.75;;;15.50;98.60;;;;;;4971457;29;20191;-84
2023/05/26 08:14:49;;;;;;;14.10;3.42;;;15.50;97.70;;;;;;4953502;29;20206;-85
2023/05/26 08:17:15;;;;;;;15.55;3.70;;;15.60;97.50;;;;;;4949074;29;20259;-85
2023/05/26 08:19:40;;;;;;;14.70;3.42;;;15.60;97.40;;;;;;4944645;29;20199;-85
2023/05/26 08:22:06;;;;;;;11.38;3.53;;;15.70;96.30;;;;;;4926072;29;20187;-85
2023/05/26 08:24:32;;;;;;;21.40;3.35;;;15.70;96.40;;;;;;4940795;29;20196;-86
2023/05/26 08:26:58;;;;;;;17.67;3.72;;;15.80;96.40;;;;;;4922514;29;20673;-85
2023/05/26 08:29:25;;;;;;;12.88;3.33;;;15.80;95.60;;;;;;4938081;29;20188;-84
2023/05/26 08:31:50;;;;;;;17.13;3.72;;;15.90;95.50;;;;;;4938779;29;20681;-86
2023/05/26 08:34:17;;;;;;;16.52;3.70;;;15.90;95.50;;;;;;4939146;29;20616;-85
2023/05/26 08:36:43;;;;;;;16.08;3.95;;;16.00;95.40;;;;;;4923843;29;20209;-83
2023/05/26 08:39:09;;;;;;;16.23;4.00;;;16.10;95.10;;;;;;4908632;29;20526;-83
2023/05/26 08:41:40;;;;;;;16.23;3.70;;;16.20;95.00;;;;;;4921576;29;20180;-83
2023/05/26 08:44:07;;;;;;;21.60;3.70;;;16.20;95.00;;;;;;4922027;29;20255;-84
2023/05/26 08:46:34;;;;;;;13.90;3.50;;;16.30;95.00;;;;;;4921814;29;20250;-83
2023/05/26 08:49:01;;;;;;;15.35;3.50;;;16.40;94.90;;;;;;4936415;29;20231;-84
2023/05/26 08:51:30;;;;;;;17.73;3.83;;;16.60;94.50;;;;;;4943314;29;20255;-84
2023/05/26 08:53:56;;;;;;;17.42;3.75;;;16.60;93.90;;;;;;4943776;29;20222;-83
2023/05/26 08:56:22;;;;;;;17.65;3.75;;;16.70;93.40;;;;;;4941793;29;20195;-84
2023/05/26 08:58:51;;;;;;;10.77;3.47;;;16.70;93.40;;;;;;4925319;29;20195;-84
2023/05/26 09:01:17;;;;;;;19.23;3.80;;;16.80;93.20;;;;;;4943311;29;20238;-85
2023/05/26 09:03:42;;;;;;;18.63;3.40;;;16.80;93.10;;;;;;4922437;29;20322;-85
2023/05/26 09:06:08;;;;;;;15.35;3.75;;;16.80;92.60;;;;;;4923102;29;20662;-84
2023/05/26 09:08:34;;;;;;;12.95;3.60;;;16.80;92.30;;;;;;4921474;29;20557;-85
2023/05/26 09:11:25;;;;;;;18.25;3.35;;;16.80;92.20;;;;;;4919806;29;20188;-83
2023/05/26 09:13:52;;;;;;;15.98;4.13;;;16.80;91.80;;;;;;4936233;29;20187;-86
2023/05/26 09:16:21;;;;;;;16.17;3.63;;;16.80;92.20;;;;;;4936460;29;20282;-88
2023/05/26 09:18:47;;;;;;;15.00;3.83;;;16.90;92.30;;;;;;4928165;29;20195;-82
2023/05/26 09:21:13;;;;;;;15.10;3.40;;;16.90;92.10;;;;;;4940816;29;20188;-82
2023/05/26 09:23:39;;;;;;;12.40;3.30;;;17.00;92.20;;;;;;4940200;29;20650;-82
2023/05/26 09:26:11;;;;;;;18.10;4.45;;;17.20;92.00;;;;;;4940287;29;20704;-83
2023/05/26 09:28:46;;;;;;;14.05;4.00;;;17.30;91.80;;;;;;4928832;29;20180;-84
2023/05/26 09:31:12;;;;;;;13.55;3.88;;;17.40;91.60;;;;;;4928303;29;20190;-84
2023/05/26 09:33:45;;;;;;;14.43;4.20;;;17.50;91.50;;;;;;4953481;29;20260;-82
2023/05/26 09:36:11;;;;;;;15.35;3.70;;;17.60;90.90;;;;;;4939722;29;20183;-85
2023/05/26 09:38:37;;;;;;;18.90;3.70;;;17.60;90.70;;;;;;4951244;29;20591;-83
2023/05/26 09:41:03;;;;;;;14.43;3.78;;;17.70;90.50;;;;;;4926149;29;20187;-83
2023/05/26 09:43:33;;;;;;;13.93;3.45;;;17.70;90.60;;;;;;4938076;29;20180;-83
2023/05/26 09:45:59;;;;;;;15.38;3.08;;;17.70;90.00;;;;;;4955320;29;20207;-83
2023/05/26 09:48:25;;;;;;;15.13;4.40;;;17.70;90.20;;;;;;4938339;29;20660;-83
2023/05/26 09:50:52;;;;;;;17.27;3.70;;;17.70;90.30;;;;;;4938884;29;20180;-84
2023/05/26 09:53:18;;;;;;;16.55;3.75;;;17.80;90.30;;;;;;4937877;29;20184;-85
2023/05/26 09:55:44;;;;;;;19.05;4.10;;;17.90;90.30;;;;;;4920688;29;20547;-82
2023/05/26 09:58:12;;;;;;;15.25;3.72;;;17.90;90.10;;;;;;4935052;29;20192;-83
2023/05/26 10:00:40;;;;;;;16.50;3.65;;;18.00;89.80;;;;;;4927565;29;20211;-83
2023/05/26 10:03:07;;;;;;;17.58;3.50;;;17.90;88.50;;;;;;4939273;29;20193;-83
2023/05/26 10:05:38;;;;;;;15.45;4.03;;;17.90;88.70;;;;;;4940964;29;20264;-83
2023/05/26 10:08:06;;;;;;;13.90;3.50;;;17.80;88.50;;;;;;4941021;29;20278;-82
2023/05/26 10:10:33;;;;;;;14.15;3.38;;;17.90;88.50;;;;;;4922746;29;20226;-82
2023/05/26 10:13:01;;;;;;;12.65;3.45;;;17.90;88.00;;;;;;4939241;29;20198;-82
2023/05/26 10:15:27;;;;;;;17.13;4.00;;;17.90;86.80;;;;;;4939499;29;20194;-82
2023/05/26 10:17:53;;;;;;;20.10;4.20;;;17.90;87.00;;;;;;4926856;29;20203;-83
2023/05/26 10:20:20;;;;;;;19.95;4.40;;;17.90;87.50;;;;;;4931354;29;20634;-82
2023/05/26 10:22:52;;;;;;;14.27;3.67;;;17.90;87.20;;;;;;4952915;29;20184;-84
2023/05/26 10:25:23;;;;;;;12.93;3.72;;;17.90;86.90;;;;;;4940148;29;20171;-83
2023/05/26 10:28:33;;;;;;;17.20;4.50;;;17.90;87.10;;;;;;4942090;29;20171;-84
2023/05/26 10:31:00;;;;;;;17.83;4.00;;;18.00;86.70;;;;;;4936903;29;20286;-84
2023/05/26 10:33:43;;;;;;;15.40;4.20;;;18.10;86.80;;;;;;4937153;29;20287;-84
2023/05/26 10:36:17;;;;;;;16.20;4.10;;;18.20;86.10;;;;;;4923570;29;20539;-85
2023/05/26 10:38:45;;;;;;;15.60;3.65;;;18.30;86.00;;;;;;4933556;29;20678;-84
2023/05/26 10:41:28;;;;;;;15.43;3.80;;;18.30;85.50;;;;;;4932868;29;20183;-84
2023/05/26 10:43:54;;;;;;;14.48;3.38;;;18.40;85.30;;;;;;4927788;29;20739;-84
2023/05/26 10:46:19;;;;;;;15.68;3.75;;;18.50;83.60;;;;;;4940212;29;20297;-84
2023/05/26 10:48:56;;;;;;;12.27;3.78;;;18.50;83.20;;;;;;4919966;29;20195;-84
2023/05/26 10:51:28;;;;;;;14.82;3.67;;;18.50;82.20;;;;;;4938865;29;20179;-83
2023/05/26 10:53:59;;;;;;;18.27;3.88;;;18.60;81.90;;;;;;4933716;29;20180;-84
2023/05/26 10:56:37;;;;;;;15.80;3.95;;;18.60;81.60;;;;;;4935086;29;20539;-84
2023/05/26 10:59:03;;;;;;;16.30;3.72;;;18.60;82.20;;;;;;4939222;29;20178;-84
2023/05/26 11:01:31;;;;;;;13.05;3.72;;;18.70;81.90;;;;;;4938337;29;20183;-83
2023/05/26 11:04:08;;;;;;;16.85;4.22;;;18.70;81.90;;;;;;4939701;29;20303;-83
2023/05/26 11:06:46;;;;;;;15.05;3.95;;;18.80;82.40;;;;;;4941584;29;20325;-82
2023/05/26 11:09:13;;;;;;;18.08;3.97;;;18.90;82.50;;;;;;4955846;29;20183;-82
2023/05/26 11:11:57;;;;;;;18.17;3.92;;;18.90;82.40;;;;;;4938199;29;20180;-85
2023/05/26 11:14:34;;;;;;;18.25;4.13;;;18.90;82.50;;;;;;4929635;29;20271;-82
2023/05/26 11:17:04;;;;;;;17.27;3.95;;;19.00;82.60;;;;;;4920337;29;20186;-82
2023/05/26 11:19:36;;;;;;;20.67;5.00;;;19.00;83.40;;;;;;4944939;29;20183;-83
2023/05/26 11:22:09;;;;;;;19.73;4.32;;;18.90;83.00;;;;;;4939656;29;20198;-83
2023/05/26 11:24:36;;;;;;;20.45;4.15;;;18.90;83.20;;;;;;4940535;29;20183;-82
2023/05/26 11:27:03;;;;;;;21.25;4.75;;;18.90;82.90;;;;;;4954272;29;20239;-82
2023/05/26 11:29:30;;;;;;;18.88;4.28;;;18.90;82.70;;;;;;4922477;29;20705;-83
2023/05/26 11:32:01;;;;;;;19.70;4.35;;;18.90;83.00;;;;;;4920354;29;20417;-82
2023/05/26 11:34:27;;;;;;;17.45;3.97;;;18.80;82.70;;;;;;4939821;29;20188;-83
2023/05/26 11:36:54;;;;;;;16.15;4.28;;;18.80;82.40;;;;;;4938585;29;20188;-82
2023/05/26 11:39:23;;;;;;;15.90;4.05;;;18.60;82.30;;;;;;4922126;29;20187;-83
2023/05/26 11:41:49;;;;;;;14.45;4.13;;;18.60;83.20;;;;;;4918534;29;20188;-81
2023/05/26 11:44:15;;;;;;;18.45;4.25;;;18.50;83.60;;;;;;4919268;29;20195;-84
2023/05/26 11:46:42;;;;;;;16.40;4.53;;;18.50;83.80;;;;;;4920900;29;20212;-86
2023/05/26 11:49:13;;;;;;;20.02;4.10;;;18.40;84.50;;;;;;4919712;29;20235;-84
2023/05/26 11:51:48;;;;;;;23.45;4.88;;;18.40;84.80;;;;;;4947694;29;20542;-83
2023/05/26 11:54:15;;;;;;;18.75;4.47;;;18.40;85.60;;;;;;4952450;29;20206;-84
2023/05/26 11:56:43;;;;;;;17.95;4.50;;;18.40;86.00;;;;;;4919297;29;20287;-84
2023/05/26 11:59:09;;;;;;;22.63;5.07;;;18.40;86.20;;;;;;4933883;29;20275;-86
2023/05/26 12:01:35;;;;;;;18.10;4.70;;;18.40;86.40;;;;;;4933277;29;20183;-83
2023/05/26 12:04:04;;;;;;;20.48;4.20;;;18.40;87.10;;;;;;4935358;29;20188;-87
2023/05/26 12:06:31;;;;;;;17.70;4.50;;;18.40;85.90;;;;;;4924661;29;20532;-83
2023/05/26 12:09:02;;;;;;;14.68;3.80;;;18.40;85.30;;;;;;4939922;29;20192;-82
2023/05/26 12:11:33;;;;;;;20.42;4.13;;;18.40;84.60;;;;;;4939449;29;20649;-83
2023/05/26 12:14:02;;;;;;;14.00;4.03;;;18.40;85.20;;;;;;4920433;29;20638;-85
2023/05/26 12:16:38;;;;;;;12.90;4.05;;;18.50;85.40;;;;;;4936240;29;20184;-84
2023/05/26 12:19:12;;;;;;;18.13;4.05;;;18.50;84.70;;;;;;4920329;29;20531;-82
2023/05/26 12:21:42;;;;;;;14.35;3.53;;;18.50;84.40;;;;;;4908794;29;20199;-85
2023/05/26 12:24:08;;;;;;;14.73;4.00;;;18.50;83.90;;;;;;4938879;29;20175;-84
2023/05/26 12:26:34;;;;;;;22.17;4.53;;;18.50;84.00;;;;;;4935371;29;20223;-82
2023/05/26 12:29:15;;;;;;;19.95;4.05;;;18.40;83.80;;;;;;4922345;29;20705;-82
2023/05/26 12:31:44;;;;;;;23.02;3.97;;;18.40;84.30;;;;;;4922984;29;20179;-84
2023/05/26 12:34:12;;;;;;;15.15;4.25;;;18.30;84.90;;;;;;4933869;29;20386;-84
2023/05/26 12:36:38;;;;;;;16.00;4.25;;;18.30;85.10;;;;;;4923111;29;20206;-83
2023/05/26 12:39:05;;;;;;;15.60;4.07;;;18.30;85.00;;;;;;4937712;29;20199;-84
2023/05/26 12:41:31;;;;;;;17.00;3.60;;;18.30;84.50;;;;;;4923499;29;20653;-83
2023/05/26 12:43:59;;;;;;;15.93;4.22;;;18.30;84.20;;;;;;4939205;29;20195;-83
2023/05/26 12:46:25;;;;;;;19.55;4.18;;;18.30;84.30;;;;;;4942223;29;20215;-83
2023/05/26 12:48:51;;;;;;;17.00;4.75;;;18.30;84.10;;;;;;4925243;29;20677;-83